Terminal Aerodrome Forecast
Issued by NWS Pueblo, CO

Home | Current Version | Previous Version | Text Only | Print | Product List | Glossary On
Versions: 1 2 3 4 5 6 7 8 9 10 11 12 13 14 15 16 17 18 19 20 21 22 23 24 25 26 27 28 29 30 31 32 33 34 35 36 37 38 39 40 41 42 43 44 45 46 47 48 49
000
FTUS45 KPUB 280128 AAC
TAFPUB
TAF AMD
KPUB 280128Z 2801/2824 35019KT P6SM FEW060 SCT120
     FM280200 36012KT P6SM SCT120
     FM280400 29008KT P6SM SCT100
     FM281900 09010KT P6SM SCT080
     FM282300 02020G30KT P6SM VCSH SCT050 BKN080=

USA.gov is the U.S. government's official web portal to all federal, state and local government web resources and services.